sensor_id;sensor_type;location;lat;lon;timestamp;temperature;humidity
3281;DHT22;1652;51.318;6.202;2022-09-06T00:00:59;20.90;1.00
3281;DHT22;1652;51.318;6.202;2022-09-06T00:03:26;20.80;1.00
3281;DHT22;1652;51.318;6.202;2022-09-06T00:05:53;20.80;1.00
3281;DHT22;1652;51.318;6.202;2022-09-06T00:08:20;20.60;1.00
3281;DHT22;1652;51.318;6.202;2022-09-06T00:10:55;20.50;1.00
3281;DHT22;1652;51.318;6.202;2022-09-06T00:13:26;20.40;1.00
3281;DHT22;1652;51.318;6.202;2022-09-06T00:15:53;20.20;1.00
3281;DHT22;1652;51.318;6.202;2022-09-06T00:18:20;20.00;18.90
3281;DHT22;1652;51.318;6.202;2022-09-06T00:20:47;19.70;45.20
3281;DHT22;1652;51.318;6.202;2022-09-06T00:23:14;19.60;62.70
3281;DHT22;1652;51.318;6.202;2022-09-06T00:25:41;19.40;88.60
3281;DHT22;1652;51.318;6.202;2022-09-06T00:28:08;19.40;94.90
3281;DHT22;1652;51.318;6.202;2022-09-06T00:30:35;19.30;99.90
3281;DHT22;1652;51.318;6.202;2022-09-06T00:33:01;19.20;99.90
3281;DHT22;1652;51.318;6.202;2022-09-06T00:35:28;19.10;99.90
3281;DHT22;1652;51.318;6.202;2022-09-06T00:37:59;19.00;99.90
3281;DHT22;1652;51.318;6.202;2022-09-06T00:40:28;18.90;99.90
3281;DHT22;1652;51.318;6.202;2022-09-06T00:42:58;18.80;99.90
3281;DHT22;1652;51.318;6.202;2022-09-06T00:45:26;18.80;99.90
3281;DHT22;1652;51.318;6.202;2022-09-06T00:47:54;18.70;99.90
3281;DHT22;1652;51.318;6.202;2022-09-06T00:50:21;18.60;99.90
3281;DHT22;1652;51.318;6.202;2022-09-06T00:52:50;18.70;99.90
3281;DHT22;1652;51.318;6.202;2022-09-06T00:55:19;18.60;99.90
3281;DHT22;1652;51.318;6.202;2022-09-06T00:57:47;18.50;99.90
3281;DHT22;1652;51.318;6.202;2022-09-06T01:00:18;18.40;99.90
3281;DHT22;1652;51.318;6.202;2022-09-06T01:02:45;18.40;99.90
3281;DHT22;1652;51.318;6.202;2022-09-06T01:05:13;18.30;99.90
3281;DHT22;1652;51.318;6.202;2022-09-06T01:07:52;18.30;99.90
3281;DHT22;1652;51.318;6.202;2022-09-06T01:16:00;18.20;99.90
3281;DHT22;1652;51.318;6.202;2022-09-06T01:29:38;18.10;99.90
3281;DHT22;1652;51.318;6.202;2022-09-06T01:32:28;18.10;99.90
3281;DHT22;1652;51.318;6.202;2022-09-06T01:35:12;18.10;99.90
3281;DHT22;1652;51.318;6.202;2022-09-06T01:37:40;18.10;99.90
3281;DHT22;1652;51.318;6.202;2022-09-06T01:40:07;18.10;99.90
3281;DHT22;1652;51.318;6.202;2022-09-06T01:42:35;18.00;99.90
3281;DHT22;1652;51.318;6.202;2022-09-06T01:45:06;18.10;99.90
3281;DHT22;1652;51.318;6.202;2022-09-06T01:51:30;18.10;99.90
3281;DHT22;1652;51.318;6.202;2022-09-06T02:01:37;18.20;99.90
3281;DHT22;1652;51.318;6.202;2022-09-06T02:04:12;18.20;99.90
3281;DHT22;1652;51.318;6.202;2022-09-06T02:06:48;18.20;99.90
3281;DHT22;1652;51.318;6.202;2022-09-06T02:09:19;18.10;99.90
3281;DHT22;1652;51.318;6.202;2022-09-06T02:11:56;18.10;99.90
3281;DHT22;1652;51.318;6.202;2022-09-06T02:14:38;18.00;99.90
3281;DHT22;1652;51.318;6.202;2022-09-06T02:17:08;18.00;99.90
3281;DHT22;1652;51.318;6.202;2022-09-06T02:19:45;18.00;99.90
3281;DHT22;1652;51.318;6.202;2022-09-06T02:22:16;17.90;99.90
3281;DHT22;1652;51.318;6.202;2022-09-06T02:24:45;18.00;99.90
3281;DHT22;1652;51.318;6.202;2022-09-06T02:27:13;18.10;99.90
3281;DHT22;1652;51.318;6.202;2022-09-06T02:29:40;18.00;99.90
3281;DHT22;1652;51.318;6.202;2022-09-06T02:32:18;18.10;99.90
3281;DHT22;1652;51.318;6.202;2022-09-06T02:34:46;18.00;99.90
3281;DHT22;1652;51.318;6.202;2022-09-06T02:37:14;18.00;99.90
3281;DHT22;1652;51.318;6.202;2022-09-06T02:39:41;18.00;99.90
3281;DHT22;1652;51.318;6.202;2022-09-06T02:42:10;18.00;99.90
3281;DHT22;1652;51.318;6.202;2022-09-06T02:44:38;17.80;99.90
3281;DHT22;1652;51.318;6.202;2022-09-06T02:47:06;17.80;99.90
3281;DHT22;1652;51.318;6.202;2022-09-06T02:49:33;17.90;99.90
3281;DHT22;1652;51.318;6.202;2022-09-06T02:52:00;17.90;99.90
3281;DHT22;1652;51.318;6.202;2022-09-06T02:54:27;17.90;99.90
3281;DHT22;1652;51.318;6.202;2022-09-06T02:56:54;18.00;99.90
3281;DHT22;1652;51.318;6.202;2022-09-06T02:59:21;17.90;99.90
3281;DHT22;1652;51.318;6.202;2022-09-06T03:01:48;18.00;99.90
3281;DHT22;1652;51.318;6.202;2022-09-06T03:04:14;18.10;99.90
3281;DHT22;1652;51.318;6.202;2022-09-06T03:06:41;18.10;99.90
3281;DHT22;1652;51.318;6.202;2022-09-06T03:09:08;18.00;99.90
3281;DHT22;1652;51.318;6.202;2022-09-06T03:11:36;17.90;99.90
3281;DHT22;1652;51.318;6.202;2022-09-06T03:14:03;18.00;99.90
3281;DHT22;1652;51.318;6.202;2022-09-06T03:16:30;18.00;99.90
3281;DHT22;1652;51.318;6.202;2022-09-06T03:18:57;18.00;99.90
3281;DHT22;1652;51.318;6.202;2022-09-06T03:21:24;17.90;99.90
3281;DHT22;1652;51.318;6.202;2022-09-06T03:23:51;17.90;99.90
3281;DHT22;1652;51.318;6.202;2022-09-06T03:26:18;18.00;99.90
3281;DHT22;1652;51.318;6.202;2022-09-06T03:28:45;18.00;99.90
3281;DHT22;1652;51.318;6.202;2022-09-06T03:31:12;18.00;99.90
3281;DHT22;1652;51.318;6.202;2022-09-06T03:33:39;18.00;99.90
3281;DHT22;1652;51.318;6.202;2022-09-06T03:36:06;18.00;99.90
3281;DHT22;1652;51.318;6.202;2022-09-06T03:38:33;18.00;99.90
3281;DHT22;1652;51.318;6.202;2022-09-06T03:41:00;18.20;99.90
3281;DHT22;1652;51.318;6.202;2022-09-06T03:43:27;18.20;99.90
3281;DHT22;1652;51.318;6.202;2022-09-06T03:45:55;18.10;99.90
3281;DHT22;1652;51.318;6.202;2022-09-06T03:48:27;18.00;99.90
3281;DHT22;1652;51.318;6.202;2022-09-06T03:50:56;18.00;99.90
3281;DHT22;1652;51.318;6.202;2022-09-06T03:53:25;18.00;99.90
3281;DHT22;1652;51.318;6.202;2022-09-06T03:55:53;18.10;99.90
3281;DHT22;1652;51.318;6.202;2022-09-06T03:58:22;18.10;99.90
3281;DHT22;1652;51.318;6.202;2022-09-06T04:01:08;18.10;99.90
3281;DHT22;1652;51.318;6.202;2022-09-06T04:03:36;18.10;99.90
3281;DHT22;1652;51.318;6.202;2022-09-06T04:06:04;18.10;99.90
3281;DHT22;1652;51.318;6.202;2022-09-06T04:08:35;18.00;99.90
3281;DHT22;1652;51.318;6.202;2022-09-06T04:11:03;18.00;99.90
3281;DHT22;1652;51.318;6.202;2022-09-06T04:13:31;17.90;99.90
3281;DHT22;1652;51.318;6.202;2022-09-06T04:15:58;18.00;99.90
3281;DHT22;1652;51.318;6.202;2022-09-06T04:18:26;17.90;99.90
3281;DHT22;1652;51.318;6.202;2022-09-06T04:20:54;17.90;99.90
3281;DHT22;1652;51.318;6.202;2022-09-06T04:23:23;17.90;99.90
3281;DHT22;1652;51.318;6.202;2022-09-06T04:25:52;17.80;99.90
3281;DHT22;1652;51.318;6.202;2022-09-06T04:28:21;17.70;99.90
3281;DHT22;1652;51.318;6.202;2022-09-06T04:30:51;17.70;99.90
3281;DHT22;1652;51.318;6.202;2022-09-06T04:33:20;17.60;99.90
3281;DHT22;1652;51.318;6.202;2022-09-06T04:36:07;17.60;99.90
3281;DHT22;1652;51.318;6.202;2022-09-06T04:38:38;17.50;99.90
3281;DHT22;1652;51.318;6.202;2022-09-06T04:41:06;17.50;99.90
3281;DHT22;1652;51.318;6.202;2022-09-06T04:43:33;17.40;99.90
3281;DHT22;1652;51.318;6.202;2022-09-06T04:46:16;17.40;99.90
3281;DHT22;1652;51.318;6.202;2022-09-06T04:48:45;17.40;99.90
3281;DHT22;1652;51.318;6.202;2022-09-06T04:51:12;17.40;99.90
3281;DHT22;1652;51.318;6.202;2022-09-06T04:53:39;17.30;99.90
3281;DHT22;1652;51.318;6.202;2022-09-06T04:56:06;17.30;99.90
3281;DHT22;1652;51.318;6.202;2022-09-06T04:58:33;17.30;99.90
3281;DHT22;1652;51.318;6.202;2022-09-06T05:01:00;17.30;99.90
3281;DHT22;1652;51.318;6.202;2022-09-06T05:03:27;17.40;99.90
3281;DHT22;1652;51.318;6.202;2022-09-06T05:06:03;17.30;99.90
3281;DHT22;1652;51.318;6.202;2022-09-06T05:08:30;17.30;99.90
3281;DHT22;1652;51.318;6.202;2022-09-06T05:10:57;17.20;99.90
3281;DHT22;1652;51.318;6.202;2022-09-06T05:13:24;17.20;99.90
3281;DHT22;1652;51.318;6.202;2022-09-06T05:15:50;17.20;99.90
3281;DHT22;1652;51.318;6.202;2022-09-06T05:18:17;17.20;99.90
3281;DHT22;1652;51.318;6.202;2022-09-06T05:20:50;17.20;99.90
3281;DHT22;1652;51.318;6.202;2022-09-06T05:23:18;17.20;99.90
3281;DHT22;1652;51.318;6.202;2022-09-06T05:25:45;17.20;99.90
3281;DHT22;1652;51.318;6.202;2022-09-06T05:28:12;17.20;99.90
3281;DHT22;1652;51.318;6.202;2022-09-06T05:30:39;17.20;99.90
3281;DHT22;1652;51.318;6.202;2022-09-06T05:33:08;17.30;99.90
3281;DHT22;1652;51.318;6.202;2022-09-06T05:35:35;17.30;99.90
3281;DHT22;1652;51.318;6.202;2022-09-06T05:38:02;17.30;99.90
3281;DHT22;1652;51.318;6.202;2022-09-06T05:40:29;17.40;99.90
3281;DHT22;1652;51.318;6.202;2022-09-06T05:42:56;17.50;99.90
3281;DHT22;1652;51.318;6.202;2022-09-06T05:45:23;17.60;99.90
3281;DHT22;1652;51.318;6.202;2022-09-06T05:47:50;17.80;99.90
3281;DHT22;1652;51.318;6.202;2022-09-06T05:50:17;18.50;99.90
3281;DHT22;1652;51.318;6.202;2022-09-06T05:52:43;19.50;99.90
3281;DHT22;1652;51.318;6.202;2022-09-06T05:55:10;20.30;99.90
3281;DHT22;1652;51.318;6.202;2022-09-06T05:57:37;21.00;99.90
3281;DHT22;1652;51.318;6.202;2022-09-06T06:00:04;21.80;99.90
3281;DHT22;1652;51.318;6.202;2022-09-06T06:02:36;22.40;99.90
3281;DHT22;1652;51.318;6.202;2022-09-06T06:05:04;22.90;99.90
3281;DHT22;1652;51.318;6.202;2022-09-06T06:07:31;23.30;99.90
3281;DHT22;1652;51.318;6.202;2022-09-06T06:09:58;23.60;99.90
3281;DHT22;1652;51.318;6.202;2022-09-06T06:12:25;24.10;99.90
3281;DHT22;1652;51.318;6.202;2022-09-06T06:14:52;24.60;99.90
3281;DHT22;1652;51.318;6.202;2022-09-06T06:17:18;25.20;99.90
3281;DHT22;1652;51.318;6.202;2022-09-06T06:19:45;25.10;99.90
3281;DHT22;1652;51.318;6.202;2022-09-06T06:22:12;25.10;99.90
3281;DHT22;1652;51.318;6.202;2022-09-06T06:24:39;25.20;99.90
3281;DHT22;1652;51.318;6.202;2022-09-06T06:27:06;25.50;99.90
3281;DHT22;1652;51.318;6.202;2022-09-06T06:29:33;25.90;99.90
3281;DHT22;1652;51.318;6.202;2022-09-06T06:31:59;26.10;99.90
3281;DHT22;1652;51.318;6.202;2022-09-06T06:34:26;26.30;99.90
3281;DHT22;1652;51.318;6.202;2022-09-06T06:36:53;26.60;99.90
3281;DHT22;1652;51.318;6.202;2022-09-06T06:39:20;26.70;99.90
3281;DHT22;1652;51.318;6.202;2022-09-06T06:41:47;26.90;99.90
3281;DHT22;1652;51.318;6.202;2022-09-06T06:44:36;27.30;99.90
3281;DHT22;1652;51.318;6.202;2022-09-06T06:47:03;27.20;99.90
3281;DHT22;1652;51.318;6.202;2022-09-06T06:49:30;27.70;99.90
3281;DHT22;1652;51.318;6.202;2022-09-06T06:51:57;28.10;99.90
3281;DHT22;1652;51.318;6.202;2022-09-06T06:54:24;28.50;99.90
3281;DHT22;1652;51.318;6.202;2022-09-06T06:56:51;28.50;99.90
3281;DHT22;1652;51.318;6.202;2022-09-06T06:59:17;28.70;99.90
3281;DHT22;1652;51.318;6.202;2022-09-06T07:01:44;29.00;99.90
3281;DHT22;1652;51.318;6.202;2022-09-06T07:04:11;28.80;99.90
3281;DHT22;1652;51.318;6.202;2022-09-06T07:06:46;28.60;99.90
3281;DHT22;1652;51.318;6.202;2022-09-06T07:09:33;28.80;99.90
3281;DHT22;1652;51.318;6.202;2022-09-06T07:12:20;29.00;99.90
3281;DHT22;1652;51.318;6.202;2022-09-06T07:14:47;29.10;99.90
3281;DHT22;1652;51.318;6.202;2022-09-06T07:17:14;29.10;99.90
3281;DHT22;1652;51.318;6.202;2022-09-06T07:19:40;28.80;99.90
3281;DHT22;1652;51.318;6.202;2022-09-06T07:22:27;28.80;99.90
3281;DHT22;1652;51.318;6.202;2022-09-06T07:24:54;29.00;99.90
3281;DHT22;1652;51.318;6.202;2022-09-06T07:27:21;29.00;99.90
3281;DHT22;1652;51.318;6.202;2022-09-06T07:30:08;29.20;99.90
3281;DHT22;1652;51.318;6.202;2022-09-06T07:32:35;29.50;99.90
3281;DHT22;1652;51.318;6.202;2022-09-06T07:35:02;29.60;99.90
3281;DHT22;1652;51.318;6.202;2022-09-06T07:37:29;29.70;99.90
3281;DHT22;1652;51.318;6.202;2022-09-06T07:39:56;29.80;99.90
3281;DHT22;1652;51.318;6.202;2022-09-06T07:42:23;29.70;99.90
3281;DHT22;1652;51.318;6.202;2022-09-06T07:44:50;29.40;99.90
3281;DHT22;1652;51.318;6.202;2022-09-06T07:47:16;29.80;99.90
3281;DHT22;1652;51.318;6.202;2022-09-06T07:50:04;29.90;99.90
3281;DHT22;1652;51.318;6.202;2022-09-06T07:52:51;30.10;99.90
3281;DHT22;1652;51.318;6.202;2022-09-06T07:55:38;30.60;99.90
3281;DHT22;1652;51.318;6.202;2022-09-06T07:58:04;30.40;99.90
3281;DHT22;1652;51.318;6.202;2022-09-06T08:00:31;30.50;99.90
3281;DHT22;1652;51.318;6.202;2022-09-06T08:02:58;30.40;99.90
3281;DHT22;1652;51.318;6.202;2022-09-06T08:05:25;30.40;99.90
3281;DHT22;1652;51.318;6.202;2022-09-06T08:08:12;30.60;99.90
3281;DHT22;1652;51.318;6.202;2022-09-06T08:10:59;30.70;99.90
3281;DHT22;1652;51.318;6.202;2022-09-06T08:13:26;30.90;99.90
3281;DHT22;1652;51.318;6.202;2022-09-06T08:16:04;30.40;99.90
3281;DHT22;1652;51.318;6.202;2022-09-06T08:18:32;30.10;99.90
3281;DHT22;1652;51.318;6.202;2022-09-06T08:23:38;30.30;99.90
3281;DHT22;1652;51.318;6.202;2022-09-06T08:26:08;30.30;99.90
3281;DHT22;1652;51.318;6.202;2022-09-06T08:28:35;30.30;99.90
3281;DHT22;1652;51.318;6.202;2022-09-06T08:33:33;30.60;99.90
3281;DHT22;1652;51.318;6.202;2022-09-06T08:36:00;30.50;99.90
3281;DHT22;1652;51.318;6.202;2022-09-06T08:38:28;30.40;99.90
3281;DHT22;1652;51.318;6.202;2022-09-06T08:41:05;30.30;99.90
3281;DHT22;1652;51.318;6.202;2022-09-06T08:43:36;30.40;99.90
3281;DHT22;1652;51.318;6.202;2022-09-06T08:46:05;30.10;99.90
3281;DHT22;1652;51.318;6.202;2022-09-06T08:48:35;30.10;99.90
3281;DHT22;1652;51.318;6.202;2022-09-06T08:53:52;30.30;99.90
3281;DHT22;1652;51.318;6.202;2022-09-06T08:56:28;30.10;99.90
3281;DHT22;1652;51.318;6.202;2022-09-06T09:01:43;29.50;99.90
3281;DHT22;1652;51.318;6.202;2022-09-06T09:04:18;29.40;99.90
3281;DHT22;1652;51.318;6.202;2022-09-06T09:06:51;29.10;99.90
3281;DHT22;1652;51.318;6.202;2022-09-06T09:09:19;28.60;99.90
3281;DHT22;1652;51.318;6.202;2022-09-06T09:11:49;28.40;99.90
3281;DHT22;1652;51.318;6.202;2022-09-06T09:14:21;28.00;99.90
3281;DHT22;1652;51.318;6.202;2022-09-06T09:16:51;27.80;99.90
3281;DHT22;1652;51.318;6.202;2022-09-06T09:19:18;27.60;99.90
3281;DHT22;1652;51.318;6.202;2022-09-06T09:21:45;27.40;99.90
3281;DHT22;1652;51.318;6.202;2022-09-06T09:24:13;27.30;99.90
3281;DHT22;1652;51.318;6.202;2022-09-06T09:29:17;26.80;99.90
3281;DHT22;1652;51.318;6.202;2022-09-06T09:31:52;26.80;99.90
3281;DHT22;1652;51.318;6.202;2022-09-06T09:37:22;26.80;99.90
3281;DHT22;1652;51.318;6.202;2022-09-06T09:40:17;26.80;99.90
3281;DHT22;1652;51.318;6.202;2022-09-06T09:43:06;26.90;99.90
3281;DHT22;1652;51.318;6.202;2022-09-06T09:45:34;26.90;99.90
3281;DHT22;1652;51.318;6.202;2022-09-06T09:48:19;26.80;99.90
3281;DHT22;1652;51.318;6.202;2022-09-06T09:50:46;26.80;99.90
3281;DHT22;1652;51.318;6.202;2022-09-06T09:53:16;26.80;99.90
3281;DHT22;1652;51.318;6.202;2022-09-06T09:55:44;26.70;99.90
3281;DHT22;1652;51.318;6.202;2022-09-06T09:58:29;26.70;99.90
3281;DHT22;1652;51.318;6.202;2022-09-06T10:01:10;26.70;99.90
3281;DHT22;1652;51.318;6.202;2022-09-06T10:03:38;26.60;99.90
3281;DHT22;1652;51.318;6.202;2022-09-06T10:06:26;26.60;99.90
3281;DHT22;1652;51.318;6.202;2022-09-06T10:09:17;26.60;99.90
3281;DHT22;1652;51.318;6.202;2022-09-06T10:14:47;26.80;99.90
3281;DHT22;1652;51.318;6.202;2022-09-06T10:17:35;26.80;99.90
3281;DHT22;1652;51.318;6.202;2022-09-06T10:20:10;26.80;99.90
3281;DHT22;1652;51.318;6.202;2022-09-06T10:25:37;26.70;99.90
3281;DHT22;1652;51.318;6.202;2022-09-06T10:39:24;26.80;99.90
3281;DHT22;1652;51.318;6.202;2022-09-06T10:45:37;27.00;99.90
3281;DHT22;1652;51.318;6.202;2022-09-06T10:54:09;26.80;99.90
3281;DHT22;1652;51.318;6.202;2022-09-06T10:59:33;26.90;99.90
3281;DHT22;1652;51.318;6.202;2022-09-06T11:06:03;27.00;99.90
3281;DHT22;1652;51.318;6.202;2022-09-06T11:08:43;27.00;99.90
3281;DHT22;1652;51.318;6.202;2022-09-06T11:11:18;26.90;99.90
3281;DHT22;1652;51.318;6.202;2022-09-06T11:13:46;27.00;99.90
3281;DHT22;1652;51.318;6.202;2022-09-06T11:16:19;27.20;99.90
3281;DHT22;1652;51.318;6.202;2022-09-06T11:19:10;27.20;99.90
3281;DHT22;1652;51.318;6.202;2022-09-06T11:22:07;27.20;99.90
3281;DHT22;1652;51.318;6.202;2022-09-06T11:24:50;27.00;99.90
3281;DHT22;1652;51.318;6.202;2022-09-06T11:29:58;27.20;99.90
3281;DHT22;1652;51.318;6.202;2022-09-06T11:32:31;27.10;99.90
3281;DHT22;1652;51.318;6.202;2022-09-06T11:35:06;27.10;99.90
3281;DHT22;1652;51.318;6.202;2022-09-06T11:37:39;27.00;99.90
3281;DHT22;1652;51.318;6.202;2022-09-06T11:40:15;27.30;99.90
3281;DHT22;1652;51.318;6.202;2022-09-06T11:53:28;27.50;99.90
3281;DHT22;1652;51.318;6.202;2022-09-06T12:06:43;27.40;99.90
3281;DHT22;1652;51.318;6.202;2022-09-06T12:09:32;27.50;99.90
3281;DHT22;1652;51.318;6.202;2022-09-06T12:12:00;27.60;99.90
3281;DHT22;1652;51.318;6.202;2022-09-06T12:14:31;27.70;99.90
3281;DHT22;1652;51.318;6.202;2022-09-06T12:19:40;27.50;99.90
3281;DHT22;1652;51.318;6.202;2022-09-06T12:27:37;27.50;99.90
3281;DHT22;1652;51.318;6.202;2022-09-06T12:30:12;27.50;99.90
3281;DHT22;1652;51.318;6.202;2022-09-06T12:32:55;27.40;99.90
3281;DHT22;1652;51.318;6.202;2022-09-06T12:35:26;27.40;99.90
3281;DHT22;1652;51.318;6.202;2022-09-06T12:38:14;27.50;99.90
3281;DHT22;1652;51.318;6.202;2022-09-06T12:40:47;27.40;99.90
3281;DHT22;1652;51.318;6.202;2022-09-06T12:43:18;27.50;99.90
3281;DHT22;1652;51.318;6.202;2022-09-06T12:45:48;27.50;99.90
3281;DHT22;1652;51.318;6.202;2022-09-06T12:48:33;27.50;99.90
3281;DHT22;1652;51.318;6.202;2022-09-06T12:51:04;27.50;99.90
3281;DHT22;1652;51.318;6.202;2022-09-06T12:53:32;27.60;99.90
3281;DHT22;1652;51.318;6.202;2022-09-06T12:56:11;27.80;99.90
3281;DHT22;1652;51.318;6.202;2022-09-06T12:58:38;27.90;99.90
3281;DHT22;1652;51.318;6.202;2022-09-06T13:01:19;27.90;99.90
3281;DHT22;1652;51.318;6.202;2022-09-06T13:04:05;27.80;99.90
3281;DHT22;1652;51.318;6.202;2022-09-06T13:06:39;27.70;99.90
3281;DHT22;1652;51.318;6.202;2022-09-06T13:09:13;27.60;99.90
3281;DHT22;1652;51.318;6.202;2022-09-06T13:11:47;27.60;99.90
3281;DHT22;1652;51.318;6.202;2022-09-06T13:14:23;27.70;99.90
3281;DHT22;1652;51.318;6.202;2022-09-06T13:16:52;27.80;99.90
3281;DHT22;1652;51.318;6.202;2022-09-06T13:21:55;27.90;99.90
3281;DHT22;1652;51.318;6.202;2022-09-06T13:24:36;27.80;99.90
3281;DHT22;1652;51.318;6.202;2022-09-06T13:27:25;27.80;99.90
3281;DHT22;1652;51.318;6.202;2022-09-06T13:29:59;27.90;99.90
3281;DHT22;1652;51.318;6.202;2022-09-06T13:32:27;27.90;99.90
3281;DHT22;1652;51.318;6.202;2022-09-06T13:34:56;27.90;99.90
3281;DHT22;1652;51.318;6.202;2022-09-06T13:37:27;28.00;99.90
3281;DHT22;1652;51.318;6.202;2022-09-06T13:39:54;27.80;99.90
3281;DHT22;1652;51.318;6.202;2022-09-06T13:42:31;27.70;99.90
3281;DHT22;1652;51.318;6.202;2022-09-06T13:45:20;27.60;99.90
3281;DHT22;1652;51.318;6.202;2022-09-06T13:47:49;27.60;99.90
3281;DHT22;1652;51.318;6.202;2022-09-06T13:50:28;27.60;99.90
3281;DHT22;1652;51.318;6.202;2022-09-06T13:53:02;27.60;99.90
3281;DHT22;1652;51.318;6.202;2022-09-06T13:55:30;27.80;99.90
3281;DHT22;1652;51.318;6.202;2022-09-06T13:57:58;27.70;99.90
3281;DHT22;1652;51.318;6.202;2022-09-06T14:00:25;27.60;99.90
3281;DHT22;1652;51.318;6.202;2022-09-06T14:02:53;27.50;99.90
3281;DHT22;1652;51.318;6.202;2022-09-06T14:05:21;27.50;99.90
3281;DHT22;1652;51.318;6.202;2022-09-06T14:07:48;27.50;99.90
3281;DHT22;1652;51.318;6.202;2022-09-06T14:10:15;27.60;99.90
3281;DHT22;1652;51.318;6.202;2022-09-06T14:12:42;27.70;99.90
3281;DHT22;1652;51.318;6.202;2022-09-06T14:15:09;27.70;99.90
3281;DHT22;1652;51.318;6.202;2022-09-06T14:17:35;27.70;99.90
3281;DHT22;1652;51.318;6.202;2022-09-06T14:20:03;27.60;99.90
3281;DHT22;1652;51.318;6.202;2022-09-06T14:22:30;27.60;99.90
3281;DHT22;1652;51.318;6.202;2022-09-06T14:24:57;27.50;99.90
3281;DHT22;1652;51.318;6.202;2022-09-06T14:27:24;27.50;99.90
3281;DHT22;1652;51.318;6.202;2022-09-06T14:29:50;27.70;99.90
3281;DHT22;1652;51.318;6.202;2022-09-06T14:32:17;27.60;99.90
3281;DHT22;1652;51.318;6.202;2022-09-06T14:34:48;27.70;99.90
3281;DHT22;1652;51.318;6.202;2022-09-06T14:37:15;27.80;99.90
3281;DHT22;1652;51.318;6.202;2022-09-06T14:39:42;27.90;99.90
3281;DHT22;1652;51.318;6.202;2022-09-06T14:42:09;28.00;99.60
3281;DHT22;1652;51.318;6.202;2022-09-06T14:44:36;27.90;97.20
3281;DHT22;1652;51.318;6.202;2022-09-06T14:47:03;27.80;96.50
3281;DHT22;1652;51.318;6.202;2022-09-06T14:49:30;27.80;96.70
3281;DHT22;1652;51.318;6.202;2022-09-06T14:51:57;27.70;95.60
3281;DHT22;1652;51.318;6.202;2022-09-06T14:54:23;27.70;95.40
3281;DHT22;1652;51.318;6.202;2022-09-06T14:56:54;27.70;95.50
3281;DHT22;1652;51.318;6.202;2022-09-06T14:59:22;27.60;96.30
3281;DHT22;1652;51.318;6.202;2022-09-06T15:01:48;27.60;95.90
3281;DHT22;1652;51.318;6.202;2022-09-06T15:04:16;27.60;96.80
3281;DHT22;1652;51.318;6.202;2022-09-06T15:06:43;27.70;96.40
3281;DHT22;1652;51.318;6.202;2022-09-06T15:09:14;27.70;96.30
3281;DHT22;1652;51.318;6.202;2022-09-06T15:11:47;27.60;96.60
3281;DHT22;1652;51.318;6.202;2022-09-06T15:14:17;27.60;96.90
3281;DHT22;1652;51.318;6.202;2022-09-06T15:16:45;27.60;96.50
3281;DHT22;1652;51.318;6.202;2022-09-06T15:19:21;27.60;95.60
3281;DHT22;1652;51.318;6.202;2022-09-06T15:21:49;27.60;95.60
3281;DHT22;1652;51.318;6.202;2022-09-06T15:24:16;27.50;95.90
3281;DHT22;1652;51.318;6.202;2022-09-06T15:26:43;27.40;95.90
3281;DHT22;1652;51.318;6.202;2022-09-06T15:29:11;27.40;96.00
3281;DHT22;1652;51.318;6.202;2022-09-06T15:31:39;27.40;94.70
3281;DHT22;1652;51.318;6.202;2022-09-06T15:34:08;27.40;94.30
3281;DHT22;1652;51.318;6.202;2022-09-06T15:36:36;27.40;95.30
3281;DHT22;1652;51.318;6.202;2022-09-06T15:39:03;27.40;95.90
3281;DHT22;1652;51.318;6.202;2022-09-06T15:41:33;27.40;95.80
3281;DHT22;1652;51.318;6.202;2022-09-06T15:44:08;27.30;95.80
3281;DHT22;1652;51.318;6.202;2022-09-06T15:46:42;27.40;94.90
3281;DHT22;1652;51.318;6.202;2022-09-06T15:49:13;27.50;94.90
3281;DHT22;1652;51.318;6.202;2022-09-06T15:51:41;27.40;95.40
3281;DHT22;1652;51.318;6.202;2022-09-06T15:54:10;27.30;96.30
3281;DHT22;1652;51.318;6.202;2022-09-06T15:56:37;27.10;96.30
3281;DHT22;1652;51.318;6.202;2022-09-06T15:59:04;27.10;96.40
3281;DHT22;1652;51.318;6.202;2022-09-06T16:01:32;27.00;97.20
3281;DHT22;1652;51.318;6.202;2022-09-06T16:04:03;27.00;96.60
3281;DHT22;1652;51.318;6.202;2022-09-06T16:06:34;27.00;94.70
3281;DHT22;1652;51.318;6.202;2022-09-06T16:09:07;27.00;94.40
3281;DHT22;1652;51.318;6.202;2022-09-06T16:11:35;26.90;95.70
3281;DHT22;1652;51.318;6.202;2022-09-06T16:14:04;26.90;94.80
3281;DHT22;1652;51.318;6.202;2022-09-06T16:16:32;27.20;93.70
3281;DHT22;1652;51.318;6.202;2022-09-06T16:19:01;27.30;94.40
3281;DHT22;1652;51.318;6.202;2022-09-06T16:21:30;27.20;95.20
3281;DHT22;1652;51.318;6.202;2022-09-06T16:24:06;27.10;94.60
3281;DHT22;1652;51.318;6.202;2022-09-06T16:26:36;27.20;94.90
3281;DHT22;1652;51.318;6.202;2022-09-06T16:29:05;27.30;94.70
3281;DHT22;1652;51.318;6.202;2022-09-06T16:31:33;27.20;94.50
3281;DHT22;1652;51.318;6.202;2022-09-06T16:34:06;27.10;95.10
3281;DHT22;1652;51.318;6.202;2022-09-06T16:36:33;27.00;95.40
3281;DHT22;1652;51.318;6.202;2022-09-06T16:39:00;26.90;95.60
3281;DHT22;1652;51.318;6.202;2022-09-06T16:41:36;26.90;96.00
3281;DHT22;1652;51.318;6.202;2022-09-06T16:44:06;26.70;96.00
3281;DHT22;1652;51.318;6.202;2022-09-06T16:46:33;26.70;95.50
3281;DHT22;1652;51.318;6.202;2022-09-06T16:49:01;26.70;95.70
3281;DHT22;1652;51.318;6.202;2022-09-06T16:51:29;26.60;95.50
3281;DHT22;1652;51.318;6.202;2022-09-06T16:53:59;26.60;95.90
3281;DHT22;1652;51.318;6.202;2022-09-06T16:56:28;26.50;96.40
3281;DHT22;1652;51.318;6.202;2022-09-06T16:59:00;26.50;96.80
3281;DHT22;1652;51.318;6.202;2022-09-06T17:01:28;26.50;96.50
3281;DHT22;1652;51.318;6.202;2022-09-06T17:03:55;26.50;96.50
3281;DHT22;1652;51.318;6.202;2022-09-06T17:06:23;26.50;96.20
3281;DHT22;1652;51.318;6.202;2022-09-06T17:08:50;26.40;96.80
3281;DHT22;1652;51.318;6.202;2022-09-06T17:11:19;26.30;97.30
3281;DHT22;1652;51.318;6.202;2022-09-06T17:13:49;26.20;97.90
3281;DHT22;1652;51.318;6.202;2022-09-06T17:16:17;26.20;97.10
3281;DHT22;1652;51.318;6.202;2022-09-06T17:19:04;26.30;96.80
3281;DHT22;1652;51.318;6.202;2022-09-06T17:21:33;26.50;96.50
3281;DHT22;1652;51.318;6.202;2022-09-06T17:24:00;26.60;96.40
3281;DHT22;1652;51.318;6.202;2022-09-06T17:26:33;26.70;96.40
3281;DHT22;1652;51.318;6.202;2022-09-06T17:29:00;26.70;96.40
3281;DHT22;1652;51.318;6.202;2022-09-06T17:31:27;26.60;96.60
3281;DHT22;1652;51.318;6.202;2022-09-06T17:33:54;26.50;96.80
3281;DHT22;1652;51.318;6.202;2022-09-06T17:36:24;26.50;96.90
3281;DHT22;1652;51.318;6.202;2022-09-06T17:38:58;26.40;97.00
3281;DHT22;1652;51.318;6.202;2022-09-06T17:41:28;26.30;97.20
3281;DHT22;1652;51.318;6.202;2022-09-06T17:43:56;26.20;97.20
3281;DHT22;1652;51.318;6.202;2022-09-06T17:46:24;26.20;97.40
3281;DHT22;1652;51.318;6.202;2022-09-06T17:48:55;26.00;97.50
3281;DHT22;1652;51.318;6.202;2022-09-06T17:51:22;26.00;97.40
3281;DHT22;1652;51.318;6.202;2022-09-06T17:53:51;26.00;97.70
3281;DHT22;1652;51.318;6.202;2022-09-06T17:56:18;25.80;98.90
3281;DHT22;1652;51.318;6.202;2022-09-06T17:58:53;25.50;99.40
3281;DHT22;1652;51.318;6.202;2022-09-06T18:01:22;25.20;99.70
3281;DHT22;1652;51.318;6.202;2022-09-06T18:03:50;24.90;99.90
3281;DHT22;1652;51.318;6.202;2022-09-06T18:06:20;24.70;99.90
3281;DHT22;1652;51.318;6.202;2022-09-06T18:08:52;24.60;99.90
3281;DHT22;1652;51.318;6.202;2022-09-06T18:11:25;24.70;99.90
3281;DHT22;1652;51.318;6.202;2022-09-06T18:13:57;24.80;99.90
3281;DHT22;1652;51.318;6.202;2022-09-06T18:16:26;24.80;99.90